sensor_id;sensor_type;location;lat;lon;timestamp;pressure;altitude;pressure_sealevel;temperature;humidity
38275;BME280;24637;49.380;6.682;2022-07-25T00:01:12;99330.38;;;25.55;50.67
38275;BME280;24637;49.380;6.682;2022-07-25T00:03:37;99323.84;;;25.50;50.72
38275;BME280;24637;49.380;6.682;2022-07-25T00:06:03;99324.53;;;25.47;50.60
38275;BME280;24637;49.380;6.682;2022-07-25T00:08:28;99320.78;;;25.43;50.94
38275;BME280;24637;49.380;6.682;2022-07-25T00:10:54;99321.94;;;25.42;50.88
38275;BME280;24637;49.380;6.682;2022-07-25T00:13:19;99317.88;;;25.40;51.16
38275;BME280;24637;49.380;6.682;2022-07-25T00:15:44;99313.44;;;25.39;51.32
38275;BME280;24637;49.380;6.682;2022-07-25T00:18:10;99315.75;;;25.37;51.25
38275;BME280;24637;49.380;6.682;2022-07-25T00:20:35;99317.25;;;25.34;51.18
38275;BME280;24637;49.380;6.682;2022-07-25T00:23:00;99311.31;;;25.36;51.63
38275;BME280;24637;49.380;6.682;2022-07-25T00:25:26;99312.13;;;25.36;51.51
38275;BME280;24637;49.380;6.682;2022-07-25T00:27:51;99315.25;;;25.35;51.53
38275;BME280;24637;49.380;6.682;2022-07-25T00:30:16;99314.59;;;25.38;51.29
38275;BME280;24637;49.380;6.682;2022-07-25T00:32:42;99316.91;;;25.36;51.14
38275;BME280;24637;49.380;6.682;2022-07-25T00:35:07;99298.88;;;25.33;51.05
38275;BME280;24637;49.380;6.682;2022-07-25T00:37:33;99305.13;;;25.30;51.44
38275;BME280;24637;49.380;6.682;2022-07-25T00:39:58;99310.72;;;25.30;51.42
38275;BME280;24637;49.380;6.682;2022-07-25T00:42:23;99293.97;;;25.30;51.33
38275;BME280;24637;49.380;6.682;2022-07-25T00:44:49;99299.06;;;25.28;51.28
38275;BME280;24637;49.380;6.682;2022-07-25T00:47:15;99292.69;;;25.28;51.51
38275;BME280;24637;49.380;6.682;2022-07-25T00:49:41;99293.03;;;25.26;51.10
38275;BME280;24637;49.380;6.682;2022-07-25T00:52:06;99290.25;;;25.26;51.29
38275;BME280;24637;49.380;6.682;2022-07-25T00:54:32;99291.84;;;25.27;51.21
38275;BME280;24637;49.380;6.682;2022-07-25T00:56:57;99290.25;;;25.26;51.59
38275;BME280;24637;49.380;6.682;2022-07-25T00:59:23;99286.16;;;25.24;51.63
38275;BME280;24637;49.380;6.682;2022-07-25T01:01:48;99290.91;;;25.23;51.40
38275;BME280;24637;49.380;6.682;2022-07-25T01:04:14;99286.00;;;25.20;51.54
38275;BME280;24637;49.380;6.682;2022-07-25T01:06:40;99282.78;;;25.18;51.23
38275;BME280;24637;49.380;6.682;2022-07-25T01:09:06;99279.50;;;25.16;51.61
38275;BME280;24637;49.380;6.682;2022-07-25T01:11:31;99277.84;;;25.15;51.74
38275;BME280;24637;49.380;6.682;2022-07-25T01:13:57;99276.69;;;25.16;51.67
38275;BME280;24637;49.380;6.682;2022-07-25T01:16:22;99258.81;;;25.17;51.76
38275;BME280;24637;49.380;6.682;2022-07-25T01:18:47;99254.88;;;25.18;51.65
38275;BME280;24637;49.380;6.682;2022-07-25T01:21:13;99261.28;;;25.19;51.49
38275;BME280;24637;49.380;6.682;2022-07-25T01:23:39;99264.41;;;25.17;51.65
38275;BME280;24637;49.380;6.682;2022-07-25T01:26:04;99267.84;;;25.14;51.60
38275;BME280;24637;49.380;6.682;2022-07-25T01:28:30;99264.13;;;25.10;51.75
38275;BME280;24637;49.380;6.682;2022-07-25T01:30:55;99269.22;;;25.08;51.29
38275;BME280;24637;49.380;6.682;2022-07-25T01:33:21;99256.63;;;25.02;51.62
38275;BME280;24637;49.380;6.682;2022-07-25T01:35:48;99255.66;;;24.98;51.63
38275;BME280;24637;49.380;6.682;2022-07-25T01:38:15;99254.72;;;24.94;51.80
38275;BME280;24637;49.380;6.682;2022-07-25T01:40:41;99251.44;;;24.92;51.85
38275;BME280;24637;49.380;6.682;2022-07-25T01:43:07;99262.78;;;24.87;51.93
38275;BME280;24637;49.380;6.682;2022-07-25T01:45:32;99268.69;;;24.85;51.88
38275;BME280;24637;49.380;6.682;2022-07-25T01:47:58;99272.97;;;24.83;52.04
38275;BME280;24637;49.380;6.682;2022-07-25T01:50:24;99267.75;;;24.81;52.05
38275;BME280;24637;49.380;6.682;2022-07-25T01:52:49;99265.28;;;24.80;52.26
38275;BME280;24637;49.380;6.682;2022-07-25T01:55:15;99266.94;;;24.81;52.02
38275;BME280;24637;49.380;6.682;2022-07-25T01:57:40;99257.75;;;24.80;52.35
38275;BME280;24637;49.380;6.682;2022-07-25T02:00:08;99258.75;;;24.75;52.48
38275;BME280;24637;49.380;6.682;2022-07-25T02:02:34;99260.72;;;24.75;52.60
38275;BME280;24637;49.380;6.682;2022-07-25T02:04:59;99261.06;;;24.73;52.75
38275;BME280;24637;49.380;6.682;2022-07-25T02:07:25;99256.31;;;24.74;52.69
38275;BME280;24637;49.380;6.682;2022-07-25T02:09:50;99260.25;;;24.73;52.65
38275;BME280;24637;49.380;6.682;2022-07-25T02:12:16;99247.81;;;24.70;52.74
38275;BME280;24637;49.380;6.682;2022-07-25T02:14:41;99251.75;;;24.69;52.68
38275;BME280;24637;49.380;6.682;2022-07-25T02:17:07;99250.09;;;24.68;52.58
38275;BME280;24637;49.380;6.682;2022-07-25T02:19:32;99248.13;;;24.69;52.75
38275;BME280;24637;49.380;6.682;2022-07-25T02:21:58;99240.13;;;24.67;52.48
38275;BME280;24637;49.380;6.682;2022-07-25T02:24:23;99246.03;;;24.66;52.29
38275;BME280;24637;49.380;6.682;2022-07-25T02:26:49;99244.75;;;24.63;52.35
38275;BME280;24637;49.380;6.682;2022-07-25T02:29:14;99244.63;;;24.60;52.50
38275;BME280;24637;49.380;6.682;2022-07-25T02:31:39;99247.72;;;24.58;52.67
38275;BME280;24637;49.380;6.682;2022-07-25T02:34:05;99234.63;;;24.59;52.93
38275;BME280;24637;49.380;6.682;2022-07-25T02:36:30;99240.53;;;24.57;52.88
38275;BME280;24637;49.380;6.682;2022-07-25T02:38:55;99223.81;;;24.57;52.53
38275;BME280;24637;49.380;6.682;2022-07-25T02:41:21;99226.09;;;24.55;52.71
38275;BME280;24637;49.380;6.682;2022-07-25T02:43:46;99221.00;;;24.57;52.77
38275;BME280;24637;49.380;6.682;2022-07-25T02:46:12;99222.16;;;24.56;52.68
38275;BME280;24637;49.380;6.682;2022-07-25T02:48:37;99211.03;;;24.56;52.68
38275;BME280;24637;49.380;6.682;2022-07-25T02:51:03;99215.78;;;24.56;52.75
38275;BME280;24637;49.380;6.682;2022-07-25T02:53:28;99217.75;;;24.55;52.80
38275;BME280;24637;49.380;6.682;2022-07-25T02:55:53;99209.38;;;24.55;52.79
38275;BME280;24637;49.380;6.682;2022-07-25T02:58:19;99212.16;;;24.55;52.64
38275;BME280;24637;49.380;6.682;2022-07-25T03:00:44;99213.31;;;24.54;52.76
38275;BME280;24637;49.380;6.682;2022-07-25T03:03:09;99215.66;;;24.52;52.67
38275;BME280;24637;49.380;6.682;2022-07-25T03:05:35;99204.00;;;24.50;52.75
38275;BME280;24637;49.380;6.682;2022-07-25T03:08:00;99205.66;;;24.51;52.87
38275;BME280;24637;49.380;6.682;2022-07-25T03:10:25;99203.53;;;24.48;53.18
38275;BME280;24637;49.380;6.682;2022-07-25T03:12:51;99208.97;;;24.45;53.02
38275;BME280;24637;49.380;6.682;2022-07-25T03:15:16;99206.53;;;24.43;52.93
38275;BME280;24637;49.380;6.682;2022-07-25T03:17:41;99201.59;;;24.40;52.70
38275;BME280;24637;49.380;6.682;2022-07-25T03:20:08;99203.13;;;24.38;52.99
38275;BME280;24637;49.380;6.682;2022-07-25T03:22:34;99204.59;;;24.35;52.95
38275;BME280;24637;49.380;6.682;2022-07-25T03:25:00;99199.03;;;24.35;52.99
38275;BME280;24637;49.380;6.682;2022-07-25T03:27:25;99189.69;;;24.31;52.99
38275;BME280;24637;49.380;6.682;2022-07-25T03:29:51;99209.56;;;24.29;53.35
38275;BME280;24637;49.380;6.682;2022-07-25T03:32:16;99198.75;;;24.28;53.47
38275;BME280;24637;49.380;6.682;2022-07-25T03:34:42;99201.03;;;24.26;53.55
38275;BME280;24637;49.380;6.682;2022-07-25T03:37:07;99199.41;;;24.25;53.64
38275;BME280;24637;49.380;6.682;2022-07-25T03:39:33;99194.97;;;24.24;53.72
38275;BME280;24637;49.380;6.682;2022-07-25T03:41:58;99195.34;;;24.22;53.53
38275;BME280;24637;49.380;6.682;2022-07-25T03:44:24;99190.91;;;24.21;53.14
38275;BME280;24637;49.380;6.682;2022-07-25T03:46:50;99189.78;;;24.22;53.68
38275;BME280;24637;49.380;6.682;2022-07-25T03:49:16;99196.81;;;24.20;53.72
38275;BME280;24637;49.380;6.682;2022-07-25T03:51:41;99190.41;;;24.19;53.80
38275;BME280;24637;49.380;6.682;2022-07-25T03:54:07;99183.19;;;24.18;53.56
38275;BME280;24637;49.380;6.682;2022-07-25T03:56:41;99179.59;;;24.18;53.54
38275;BME280;24637;49.380;6.682;2022-07-25T03:59:08;99181.88;;;24.16;53.76
38275;BME280;24637;49.380;6.682;2022-07-25T04:01:34;99180.75;;;24.17;53.61
38275;BME280;24637;49.380;6.682;2022-07-25T04:04:00;99177.50;;;24.15;53.55
38275;BME280;24637;49.380;6.682;2022-07-25T04:06:25;99179.09;;;24.16;53.57
38275;BME280;24637;49.380;6.682;2022-07-25T04:08:51;99174.22;;;24.13;53.56
38275;BME280;24637;49.380;6.682;2022-07-25T04:11:17;99173.41;;;24.12;53.47
38275;BME280;24637;49.380;6.682;2022-07-25T04:13:43;99178.81;;;24.09;53.50
38275;BME280;24637;49.380;6.682;2022-07-25T04:16:08;99171.97;;;24.06;53.64
38275;BME280;24637;49.380;6.682;2022-07-25T04:18:34;99170.66;;;24.04;53.56
38275;BME280;24637;49.380;6.682;2022-07-25T04:21:00;99169.03;;;24.03;53.65
38275;BME280;24637;49.380;6.682;2022-07-25T04:23:26;99172.94;;;24.02;53.66
38275;BME280;24637;49.380;6.682;2022-07-25T04:25:53;99175.28;;;23.99;53.60
38275;BME280;24637;49.380;6.682;2022-07-25T04:28:18;99160.06;;;23.97;53.84
38275;BME280;24637;49.380;6.682;2022-07-25T04:30:44;99169.88;;;23.94;53.80
38275;BME280;24637;49.380;6.682;2022-07-25T04:33:12;99174.97;;;23.92;54.01
38275;BME280;24637;49.380;6.682;2022-07-25T04:35:39;99173.34;;;23.91;54.30
38275;BME280;24637;49.380;6.682;2022-07-25T04:38:05;99171.06;;;23.93;54.29
38275;BME280;24637;49.380;6.682;2022-07-25T04:40:30;99168.28;;;23.93;54.11
38275;BME280;24637;49.380;6.682;2022-07-25T04:42:56;99165.47;;;23.93;54.01
38275;BME280;24637;49.380;6.682;2022-07-25T04:45:21;99161.53;;;23.94;54.15
38275;BME280;24637;49.380;6.682;2022-07-25T04:47:47;99179.88;;;23.95;54.11
38275;BME280;24637;49.380;6.682;2022-07-25T04:50:14;99167.09;;;23.94;54.24
38275;BME280;24637;49.380;6.682;2022-07-25T04:52:39;99167.59;;;23.96;54.04
38275;BME280;24637;49.380;6.682;2022-07-25T04:55:05;99172.34;;;23.96;54.16
38275;BME280;24637;49.380;6.682;2022-07-25T04:57:31;99164.47;;;23.98;53.89
38275;BME280;24637;49.380;6.682;2022-07-25T04:59:56;99163.31;;;23.99;54.15
38275;BME280;24637;49.380;6.682;2022-07-25T05:02:23;99164.13;;;23.99;54.22
38275;BME280;24637;49.380;6.682;2022-07-25T05:04:49;99160.88;;;23.97;54.08
38275;BME280;24637;49.380;6.682;2022-07-25T05:07:14;99159.72;;;23.98;54.00
38275;BME280;24637;49.380;6.682;2022-07-25T05:09:40;99158.56;;;23.99;54.18
38275;BME280;24637;49.380;6.682;2022-07-25T05:12:05;99156.59;;;24.00;54.19
38275;BME280;24637;49.380;6.682;2022-07-25T05:14:31;99158.56;;;23.99;54.10
38275;BME280;24637;49.380;6.682;2022-07-25T05:16:56;99151.84;;;24.01;53.83
38275;BME280;24637;49.380;6.682;2022-07-25T05:19:21;99149.06;;;24.01;53.93
38275;BME280;24637;49.380;6.682;2022-07-25T05:21:46;99150.69;;;24.02;54.26
38275;BME280;24637;49.380;6.682;2022-07-25T05:24:12;99144.44;;;24.05;54.18
38275;BME280;24637;49.380;6.682;2022-07-25T05:26:37;99133.81;;;24.07;54.32
38275;BME280;24637;49.380;6.682;2022-07-25T05:29:03;99135.25;;;24.13;54.15
38275;BME280;24637;49.380;6.682;2022-07-25T05:31:28;99132.25;;;24.18;54.04
38275;BME280;24637;49.380;6.682;2022-07-25T05:33:53;99132.44;;;24.21;53.89
38275;BME280;24637;49.380;6.682;2022-07-25T05:36:19;99135.81;;;24.27;53.70
38275;BME280;24637;49.380;6.682;2022-07-25T05:38:44;99136.78;;;24.31;53.25
38275;BME280;24637;49.380;6.682;2022-07-25T05:41:09;99132.16;;;24.35;53.15
38275;BME280;24637;49.380;6.682;2022-07-25T05:43:35;99127.53;;;24.39;53.41
38275;BME280;24637;49.380;6.682;2022-07-25T05:46:01;99137.69;;;24.44;53.34
38275;BME280;24637;49.380;6.682;2022-07-25T05:48:27;99137.47;;;24.49;53.28
38275;BME280;24637;49.380;6.682;2022-07-25T05:50:52;99133.66;;;24.53;53.17
38275;BME280;24637;49.380;6.682;2022-07-25T05:53:17;99125.44;;;24.57;53.01
38275;BME280;24637;49.380;6.682;2022-07-25T05:55:43;99128.34;;;24.60;52.80
38275;BME280;24637;49.380;6.682;2022-07-25T05:58:08;99126.06;;;24.62;52.68
38275;BME280;24637;49.380;6.682;2022-07-25T06:00:34;99134.91;;;24.64;52.56
38275;BME280;24637;49.380;6.682;2022-07-25T06:03:00;99132.22;;;24.68;52.64
38275;BME280;24637;49.380;6.682;2022-07-25T06:05:25;99132.22;;;24.68;52.57
38275;BME280;24637;49.380;6.682;2022-07-25T06:07:51;99131.56;;;24.71;52.43
38275;BME280;24637;49.380;6.682;2022-07-25T06:10:16;99127.28;;;24.73;52.65
38275;BME280;24637;49.380;6.682;2022-07-25T06:12:41;99126.59;;;24.76;52.17
38275;BME280;24637;49.380;6.682;2022-07-25T06:15:07;99132.31;;;24.80;52.17
38275;BME280;24637;49.380;6.682;2022-07-25T06:17:33;99136.38;;;24.83;52.13
38275;BME280;24637;49.380;6.682;2022-07-25T06:19:59;99129.63;;;24.84;52.08
38275;BME280;24637;49.380;6.682;2022-07-25T06:22:24;99131.75;;;24.87;52.13
38275;BME280;24637;49.380;6.682;2022-07-25T06:24:49;99132.25;;;24.89;51.68
38275;BME280;24637;49.380;6.682;2022-07-25T06:27:15;99117.63;;;24.92;51.84
38275;BME280;24637;49.380;6.682;2022-07-25T06:29:41;99122.53;;;24.95;51.82
38275;BME280;24637;49.380;6.682;2022-07-25T06:32:06;99113.47;;;24.98;51.90
38275;BME280;24637;49.380;6.682;2022-07-25T06:34:31;99114.75;;;25.00;51.57
38275;BME280;24637;49.380;6.682;2022-07-25T06:36:57;99112.44;;;25.02;52.02
38275;BME280;24637;49.380;6.682;2022-07-25T06:39:24;99112.56;;;25.06;52.00
38275;BME280;24637;49.380;6.682;2022-07-25T06:41:49;99115.16;;;25.11;52.16
38275;BME280;24637;49.380;6.682;2022-07-25T06:44:15;99120.03;;;25.14;52.23
38275;BME280;24637;49.380;6.682;2022-07-25T06:46:40;99115.75;;;25.17;52.14
38275;BME280;24637;49.380;6.682;2022-07-25T06:49:06;99129.34;;;25.18;51.95
38275;BME280;24637;49.380;6.682;2022-07-25T06:51:31;99125.84;;;25.21;51.94
38275;BME280;24637;49.380;6.682;2022-07-25T06:53:57;99123.56;;;25.23;51.98
38275;BME280;24637;49.380;6.682;2022-07-25T06:56:22;99117.28;;;25.26;52.00
38275;BME280;24637;49.380;6.682;2022-07-25T06:58:48;99116.59;;;25.29;51.66
38275;BME280;24637;49.380;6.682;2022-07-25T07:01:14;99117.06;;;25.31;51.93
38275;BME280;24637;49.380;6.682;2022-07-25T07:03:39;99119.13;;;25.34;51.81
38275;BME280;24637;49.380;6.682;2022-07-25T07:06:06;99118.47;;;25.37;51.85
38275;BME280;24637;49.380;6.682;2022-07-25T07:08:32;99114.53;;;25.38;51.55
38275;BME280;24637;49.380;6.682;2022-07-25T07:10:57;99110.22;;;25.41;51.46
38275;BME280;24637;49.380;6.682;2022-07-25T07:13:23;99106.25;;;25.42;51.67
38275;BME280;24637;49.380;6.682;2022-07-25T07:15:48;99098.34;;;25.44;51.73
38275;BME280;24637;49.380;6.682;2022-07-25T07:18:22;99103.59;;;25.45;51.42
38275;BME280;24637;49.380;6.682;2022-07-25T07:20:47;99092.09;;;25.47;51.54
38275;BME280;24637;49.380;6.682;2022-07-25T07:23:13;99095.38;;;25.49;51.52
38275;BME280;24637;49.380;6.682;2022-07-25T07:25:39;99097.78;;;25.50;51.53
38275;BME280;24637;49.380;6.682;2022-07-25T07:28:05;99092.69;;;25.52;51.46
38275;BME280;24637;49.380;6.682;2022-07-25T07:30:31;99085.94;;;25.53;51.17
38275;BME280;24637;49.380;6.682;2022-07-25T07:32:57;99080.84;;;25.56;51.63
38275;BME280;24637;49.380;6.682;2022-07-25T07:35:22;99088.03;;;25.57;51.50
38275;BME280;24637;49.380;6.682;2022-07-25T07:37:49;99091.31;;;25.59;51.46
38275;BME280;24637;49.380;6.682;2022-07-25T07:40:16;99086.56;;;25.59;51.26
38275;BME280;24637;49.380;6.682;2022-07-25T07:42:44;99081.78;;;25.60;51.39
38275;BME280;24637;49.380;6.682;2022-07-25T07:47:42;99078.31;;;25.63;51.12
38275;BME280;24637;49.380;6.682;2022-07-25T07:50:09;99079.94;;;25.64;50.95
38275;BME280;24637;49.380;6.682;2022-07-25T07:52:35;99081.53;;;25.65;51.13
38275;BME280;24637;49.380;6.682;2022-07-25T07:55:01;99072.00;;;25.66;51.06
38275;BME280;24637;49.380;6.682;2022-07-25T07:57:45;99075.28;;;25.68;51.29
38275;BME280;24637;49.380;6.682;2022-07-25T08:00:11;99072.13;;;25.69;51.12
38275;BME280;24637;49.380;6.682;2022-07-25T08:02:45;99064.59;;;25.70;50.96
38275;BME280;24637;49.380;6.682;2022-07-25T08:05:11;99066.22;;;25.71;51.15
38275;BME280;24637;49.380;6.682;2022-07-25T08:07:37;99072.25;;;25.73;51.05
38275;BME280;24637;49.380;6.682;2022-07-25T08:10:03;99059.09;;;25.73;51.20
38275;BME280;24637;49.380;6.682;2022-07-25T08:12:28;99065.50;;;25.74;50.98
38275;BME280;24637;49.380;6.682;2022-07-25T08:14:54;99061.53;;;25.75;51.04
38275;BME280;24637;49.380;6.682;2022-07-25T08:17:19;99065.97;;;25.76;51.09
38275;BME280;24637;49.380;6.682;2022-07-25T08:19:45;99058.06;;;25.78;50.87
38275;BME280;24637;49.380;6.682;2022-07-25T08:22:10;99061.69;;;25.78;51.19
38275;BME280;24637;49.380;6.682;2022-07-25T08:24:35;99056.88;;;25.79;50.92
38275;BME280;24637;49.380;6.682;2022-07-25T08:27:01;99060.16;;;25.81;51.04
38275;BME280;24637;49.380;6.682;2022-07-25T08:29:26;99058.16;;;25.81;50.90
38275;BME280;24637;49.380;6.682;2022-07-25T08:31:51;99061.78;;;25.82;50.96
38275;BME280;24637;49.380;6.682;2022-07-25T08:34:17;99053.41;;;25.82;50.88
38275;BME280;24637;49.380;6.682;2022-07-25T08:36:46;99053.88;;;25.84;51.02
38275;BME280;24637;49.380;6.682;2022-07-25T08:39:11;99048.28;;;25.84;50.85
38275;BME280;24637;49.380;6.682;2022-07-25T08:41:39;99043.53;;;25.84;50.62
38275;BME280;24637;49.380;6.682;2022-07-25T08:44:06;99039.19;;;25.87;50.92
38275;BME280;24637;49.380;6.682;2022-07-25T08:46:32;99043.63;;;25.88;50.82
38275;BME280;24637;49.380;6.682;2022-07-25T08:48:58;99039.19;;;25.87;51.06
38275;BME280;24637;49.380;6.682;2022-07-25T08:51:24;99045.25;;;25.89;51.03
38275;BME280;24637;49.380;6.682;2022-07-25T08:53:50;99039.66;;;25.89;51.00
38275;BME280;24637;49.380;6.682;2022-07-25T08:56:16;99041.28;;;25.90;51.03
38275;BME280;24637;49.380;6.682;2022-07-25T08:58:41;99038.97;;;25.92;50.97
38275;BME280;24637;49.380;6.682;2022-07-25T09:01:06;99040.59;;;25.93;50.98
38275;BME280;24637;49.380;6.682;2022-07-25T09:03:32;99030.25;;;25.94;51.00
38275;BME280;24637;49.380;6.682;2022-07-25T09:05:58;99025.44;;;25.94;50.80
38275;BME280;24637;49.380;6.682;2022-07-25T09:08:23;99023.13;;;25.96;50.77
38275;BME280;24637;49.380;6.682;2022-07-25T09:10:50;99030.34;;;25.97;50.76
38275;BME280;24637;49.380;6.682;2022-07-25T09:13:17;99031.97;;;25.98;50.90
38275;BME280;24637;49.380;6.682;2022-07-25T09:15:51;99027.22;;;25.99;50.86
38275;BME280;24637;49.380;6.682;2022-07-25T09:18:22;99028.84;;;26.00;50.67
38275;BME280;24637;49.380;6.682;2022-07-25T09:20:58;99025.22;;;25.99;50.92
38275;BME280;24637;49.380;6.682;2022-07-25T09:23:35;99028.47;;;26.01;50.72
38275;BME280;24637;49.380;6.682;2022-07-25T09:28:41;99027.31;;;26.02;50.95
38275;BME280;24637;49.380;6.682;2022-07-25T09:31:07;99029.75;;;26.04;50.98
38275;BME280;24637;49.380;6.682;2022-07-25T09:33:34;99027.78;;;26.04;50.91
38275;BME280;24637;49.380;6.682;2022-07-25T09:36:11;99042.19;;;26.06;50.89
38275;BME280;24637;49.380;6.682;2022-07-25T09:38:37;99038.59;;;26.06;50.92
38275;BME280;24637;49.380;6.682;2022-07-25T09:41:02;99032.66;;;26.07;50.91
38275;BME280;24637;49.380;6.682;2022-07-25T09:43:38;99042.69;;;26.08;50.87
38275;BME280;24637;49.380;6.682;2022-07-25T09:46:04;99031.50;;;26.08;50.90
38275;BME280;24637;49.380;6.682;2022-07-25T09:48:32;99026.69;;;26.09;50.58
38275;BME280;24637;49.380;6.682;2022-07-25T09:50:58;99028.34;;;26.10;50.76
38275;BME280;24637;49.380;6.682;2022-07-25T09:53:24;99023.56;;;26.10;50.82
38275;BME280;24637;49.380;6.682;2022-07-25T09:55:50;99034.72;;;26.10;51.02
38275;BME280;24637;49.380;6.682;2022-07-25T09:58:18;99032.75;;;26.11;50.59
38275;BME280;24637;49.380;6.682;2022-07-25T10:00:43;99030.78;;;26.11;50.73
38275;BME280;24637;49.380;6.682;2022-07-25T10:03:37;99029.63;;;26.12;50.65
38275;BME280;24637;49.380;6.682;2022-07-25T10:08:36;99022.88;;;26.13;50.89
38275;BME280;24637;49.380;6.682;2022-07-25T10:11:02;99016.13;;;26.14;50.55
38275;BME280;24637;49.380;6.682;2022-07-25T10:13:32;99018.91;;;26.14;50.57
38275;BME280;24637;49.380;6.682;2022-07-25T10:15:59;99009.38;;;26.15;50.65
38275;BME280;24637;49.380;6.682;2022-07-25T10:18:28;99009.38;;;26.15;50.45
38275;BME280;24637;49.380;6.682;2022-07-25T10:21:16;99023.78;;;26.17;50.30
38275;BME280;24637;49.380;6.682;2022-07-25T10:23:41;99019.00;;;26.18;50.58
38275;BME280;24637;49.380;6.682;2022-07-25T10:26:07;99023.78;;;26.17;50.58
38275;BME280;24637;49.380;6.682;2022-07-25T10:31:16;99019.00;;;26.18;50.40
38275;BME280;24637;49.380;6.682;2022-07-25T10:33:46;99025.41;;;26.18;50.60
38275;BME280;24637;49.380;6.682;2022-07-25T10:36:12;99027.03;;;26.19;50.59
38275;BME280;24637;49.380;6.682;2022-07-25T10:38:38;99029.47;;;26.21;50.42
38275;BME280;24637;49.380;6.682;2022-07-25T10:41:05;99035.06;;;26.21;50.39
38275;BME280;24637;49.380;6.682;2022-07-25T10:43:37;99044.28;;;26.21;50.58
38275;BME280;24637;49.380;6.682;2022-07-25T10:46:10;99052.66;;;26.21;50.42
38275;BME280;24637;49.380;6.682;2022-07-25T10:48:37;99047.88;;;26.22;50.55
38275;BME280;24637;49.380;6.682;2022-07-25T10:51:06;99054.28;;;26.22;50.47
38275;BME280;24637;49.380;6.682;2022-07-25T10:56:17;99031.94;;;26.22;50.53
38275;BME280;24637;49.380;6.682;2022-07-25T11:01:21;99046.34;;;26.24;50.47
38275;BME280;24637;49.380;6.682;2022-07-25T11:03:47;99053.59;;;26.25;50.59
38275;BME280;24637;49.380;6.682;2022-07-25T11:06:13;99051.94;;;26.24;50.50
38275;BME280;24637;49.380;6.682;2022-07-25T11:08:40;99059.19;;;26.25;50.32
38275;BME280;24637;49.380;6.682;2022-07-25T11:11:06;99060.81;;;26.26;50.50
38275;BME280;24637;49.380;6.682;2022-07-25T11:13:39;99060.81;;;26.26;50.37
38275;BME280;24637;49.380;6.682;2022-07-25T11:16:05;99055.22;;;26.26;50.50
38275;BME280;24637;49.380;6.682;2022-07-25T11:18:37;99049.63;;;26.26;50.37
38275;BME280;24637;49.380;6.682;2022-07-25T11:21:06;99056.03;;;26.27;50.49
38275;BME280;24637;49.380;6.682;2022-07-25T11:23:33;99049.63;;;26.26;50.29
38275;BME280;24637;49.380;6.682;2022-07-25T11:26:10;99057.66;;;26.28;50.49
38275;BME280;24637;49.380;6.682;2022-07-25T11:28:37;99054.06;;;26.27;50.34
38275;BME280;24637;49.380;6.682;2022-07-25T11:31:04;99052.91;;;26.28;50.62
38275;BME280;24637;49.380;6.682;2022-07-25T11:33:30;99048.13;;;26.29;50.59
38275;BME280;24637;49.380;6.682;2022-07-25T11:35:55;99045.69;;;26.27;50.43
38275;BME280;24637;49.380;6.682;2022-07-25T11:38:24;99044.97;;;26.31;50.55
38275;BME280;24637;49.380;6.682;2022-07-25T11:40:49;99046.56;;;26.32;50.26
38275;BME280;24637;49.380;6.682;2022-07-25T11:43:19;99047.78;;;26.31;50.29
38275;BME280;24637;49.380;6.682;2022-07-25T11:45:55;99046.56;;;26.32;50.47
38275;BME280;24637;49.380;6.682;2022-07-25T11:48:35;99056.94;;;26.31;50.37
38275;BME280;24637;49.380;6.682;2022-07-25T11:51:11;99053.78;;;26.33;50.47
38275;BME280;24637;49.380;6.682;2022-07-25T11:53:43;99045.41;;;26.33;50.34
38275;BME280;24637;49.380;6.682;2022-07-25T11:56:16;99044.25;;;26.34;50.36
38275;BME280;24637;49.380;6.682;2022-07-25T11:58:43;99045.88;;;26.35;50.45
38275;BME280;24637;49.380;6.682;2022-07-25T12:01:13;99043.09;;;26.35;50.36
38275;BME280;24637;49.380;6.682;2022-07-25T12:03:39;99051.47;;;26.35;50.51
38275;BME280;24637;49.380;6.682;2022-07-25T12:06:11;99044.72;;;26.36;50.33
38275;BME280;24637;49.380;6.682;2022-07-25T12:08:39;99053.09;;;26.36;50.38
38275;BME280;24637;49.380;6.682;2022-07-25T12:11:21;99054.75;;;26.37;50.38
38275;BME280;24637;49.380;6.682;2022-07-25T12:13:48;99051.94;;;26.37;50.43
38275;BME280;24637;49.380;6.682;2022-07-25T12:16:14;99049.16;;;26.37;50.25
38275;BME280;24637;49.380;6.682;2022-07-25T12:18:40;99056.38;;;26.38;50.33
38275;BME280;24637;49.380;6.682;2022-07-25T12:21:05;99061.97;;;26.38;50.40
38275;BME280;24637;49.380;6.682;2022-07-25T12:23:31;99056.38;;;26.38;50.62
38275;BME280;24637;49.380;6.682;2022-07-25T12:25:57;99069.16;;;26.39;50.47
38275;BME280;24637;49.380;6.682;2022-07-25T12:28:22;99074.72;;;26.39;50.28
38275;BME280;24637;49.380;6.682;2022-07-25T12:30:47;99063.56;;;26.39;50.21
38275;BME280;24637;49.380;6.682;2022-07-25T12:33:14;99056.00;;;26.39;50.30
38275;BME280;24637;49.380;6.682;2022-07-25T12:35:40;99065.19;;;26.40;50.26
38275;BME280;24637;49.380;6.682;2022-07-25T12:38:06;99065.19;;;26.40;50.20
38275;BME280;24637;49.380;6.682;2022-07-25T12:40:32;99061.56;;;26.39;50.19
38275;BME280;24637;49.380;6.682;2022-07-25T12:42:58;99055.63;;;26.41;50.30
38275;BME280;24637;49.380;6.682;2022-07-25T12:45:23;99061.22;;;26.41;50.19
38275;BME280;24637;49.380;6.682;2022-07-25T12:47:49;99070.44;;;26.41;50.16
38275;BME280;24637;49.380;6.682;2022-07-25T12:50:15;99079.63;;;26.42;50.15
38275;BME280;24637;49.380;6.682;2022-07-25T12:52:42;99082.44;;;26.42;50.20
38275;BME280;24637;49.380;6.682;2022-07-25T12:55:10;99086.84;;;26.43;50.26
38275;BME280;24637;49.380;6.682;2022-07-25T12:57:36;99085.69;;;26.44;50.20
38275;BME280;24637;49.380;6.682;2022-07-25T13:00:07;99086.50;;;26.44;50.27
38275;BME280;24637;49.380;6.682;2022-07-25T13:02:34;99083.72;;;26.44;50.23
38275;BME280;24637;49.380;6.682;2022-07-25T13:04:59;99085.34;;;26.45;50.34
38275;BME280;24637;49.380;6.682;2022-07-25T13:07:25;99092.91;;;26.45;50.29
38275;BME280;24637;49.380;6.682;2022-07-25T13:09:50;99101.28;;;26.45;50.36
38275;BME280;24637;49.380;6.682;2022-07-25T13:12:15;99101.28;;;26.45;50.41